sensor_id;sensor_type;location;lat;lon;timestamp;P1;durP1;ratioP1;P2;durP2;ratioP2
4857;SDS011;58975;51.978;8.472;2023-05-23T00:00:17;22.92;;;15.23;;
4857;SDS011;58975;51.978;8.472;2023-05-23T00:05:15;24.80;;;14.52;;
4857;SDS011;58975;51.978;8.472;2023-05-23T00:10:14;17.90;;;11.85;;
4857;SDS011;58975;51.978;8.472;2023-05-23T00:15:10;14.68;;;10.63;;
4857;SDS011;58975;51.978;8.472;2023-05-23T00:20:07;13.40;;;9.45;;
4857;SDS011;58975;51.978;8.472;2023-05-23T00:25:06;15.70;;;11.30;;
4857;SDS011;58975;51.978;8.472;2023-05-23T00:30:03;19.67;;;11.85;;
4857;SDS011;58975;51.978;8.472;2023-05-23T00:35:00;19.27;;;12.88;;
4857;SDS011;58975;51.978;8.472;2023-05-23T00:39:56;24.45;;;14.88;;
4857;SDS011;58975;51.978;8.472;2023-05-23T00:44:52;26.30;;;15.50;;
4857;SDS011;58975;51.978;8.472;2023-05-23T00:49:49;27.92;;;16.48;;
4857;SDS011;58975;51.978;8.472;2023-05-23T00:54:46;28.58;;;16.77;;
4857;SDS011;58975;51.978;8.472;2023-05-23T00:59:42;27.63;;;17.90;;
4857;SDS011;58975;51.978;8.472;2023-05-23T01:04:42;29.45;;;17.15;;
4857;SDS011;58975;51.978;8.472;2023-05-23T01:09:39;29.03;;;17.53;;
4857;SDS011;58975;51.978;8.472;2023-05-23T01:14:39;35.75;;;20.45;;
4857;SDS011;58975;51.978;8.472;2023-05-23T01:24:59;30.33;;;20.85;;
4857;SDS011;58975;51.978;8.472;2023-05-23T01:30:06;29.60;;;20.05;;
4857;SDS011;58975;51.978;8.472;2023-05-23T01:35:06;31.70;;;20.23;;
4857;SDS011;58975;51.978;8.472;2023-05-23T01:45:01;33.88;;;20.25;;
4857;SDS011;58975;51.978;8.472;2023-05-23T01:49:58;32.28;;;20.73;;
4857;SDS011;58975;51.978;8.472;2023-05-23T01:54:55;28.15;;;17.52;;
4857;SDS011;58975;51.978;8.472;2023-05-23T01:59:52;21.55;;;14.15;;
4857;SDS011;58975;51.978;8.472;2023-05-23T02:04:49;19.58;;;13.02;;
4857;SDS011;58975;51.978;8.472;2023-05-23T02:09:45;17.00;;;11.77;;
4857;SDS011;58975;51.978;8.472;2023-05-23T02:14:42;22.02;;;12.80;;
4857;SDS011;58975;51.978;8.472;2023-05-23T02:19:38;23.00;;;13.50;;
4857;SDS011;58975;51.978;8.472;2023-05-23T02:24:35;20.27;;;11.98;;
4857;SDS011;58975;51.978;8.472;2023-05-23T02:29:31;20.38;;;12.80;;
4857;SDS011;58975;51.978;8.472;2023-05-23T02:34:28;18.83;;;12.27;;
4857;SDS011;58975;51.978;8.472;2023-05-23T02:39:25;20.73;;;13.30;;
4857;SDS011;58975;51.978;8.472;2023-05-23T02:44:22;20.50;;;14.17;;
4857;SDS011;58975;51.978;8.472;2023-05-23T02:49:18;22.55;;;14.38;;
4857;SDS011;58975;51.978;8.472;2023-05-23T02:54:15;21.58;;;14.00;;
4857;SDS011;58975;51.978;8.472;2023-05-23T02:59:12;25.83;;;15.98;;
4857;SDS011;58975;51.978;8.472;2023-05-23T03:04:08;28.33;;;16.08;;
4857;SDS011;58975;51.978;8.472;2023-05-23T03:09:05;27.33;;;16.30;;
4857;SDS011;58975;51.978;8.472;2023-05-23T03:14:03;24.83;;;16.50;;
4857;SDS011;58975;51.978;8.472;2023-05-23T03:18:59;30.35;;;16.73;;
4857;SDS011;58975;51.978;8.472;2023-05-23T03:23:56;35.70;;;16.20;;
4857;SDS011;58975;51.978;8.472;2023-05-23T03:28:53;28.20;;;17.90;;
4857;SDS011;58975;51.978;8.472;2023-05-23T03:33:50;27.27;;;17.55;;
4857;SDS011;58975;51.978;8.472;2023-05-23T03:38:46;29.90;;;16.95;;
4857;SDS011;58975;51.978;8.472;2023-05-23T03:43:43;25.60;;;16.60;;
4857;SDS011;58975;51.978;8.472;2023-05-23T03:48:40;28.67;;;18.23;;
4857;SDS011;58975;51.978;8.472;2023-05-23T03:53:36;28.73;;;16.70;;
4857;SDS011;58975;51.978;8.472;2023-05-23T03:58:33;26.63;;;17.02;;
4857;SDS011;58975;51.978;8.472;2023-05-23T04:03:30;32.08;;;18.58;;
4857;SDS011;58975;51.978;8.472;2023-05-23T04:08:30;34.20;;;20.27;;
4857;SDS011;58975;51.978;8.472;2023-05-23T04:13:29;32.88;;;20.40;;
4857;SDS011;58975;51.978;8.472;2023-05-23T04:18:26;37.83;;;20.30;;
4857;SDS011;58975;51.978;8.472;2023-05-23T04:23:23;38.70;;;19.53;;
4857;SDS011;58975;51.978;8.472;2023-05-23T04:28:20;42.15;;;20.45;;
4857;SDS011;58975;51.978;8.472;2023-05-23T04:33:17;42.72;;;21.67;;
4857;SDS011;58975;51.978;8.472;2023-05-23T04:38:13;42.13;;;21.52;;
4857;SDS011;58975;51.978;8.472;2023-05-23T04:43:09;46.83;;;23.23;;
4857;SDS011;58975;51.978;8.472;2023-05-23T04:48:09;51.30;;;23.50;;
4857;SDS011;58975;51.978;8.472;2023-05-23T04:53:08;40.85;;;22.48;;
4857;SDS011;58975;51.978;8.472;2023-05-23T04:58:05;43.00;;;23.30;;
4857;SDS011;58975;51.978;8.472;2023-05-23T05:03:01;41.85;;;23.13;;
4857;SDS011;58975;51.978;8.472;2023-05-23T05:07:58;39.40;;;23.17;;
4857;SDS011;58975;51.978;8.472;2023-05-23T05:12:54;37.75;;;21.27;;
4857;SDS011;58975;51.978;8.472;2023-05-23T05:17:51;39.03;;;22.35;;
4857;SDS011;58975;51.978;8.472;2023-05-23T05:22:53;43.30;;;21.45;;
4857;SDS011;58975;51.978;8.472;2023-05-23T05:27:52;41.30;;;23.73;;
4857;SDS011;58975;51.978;8.472;2023-05-23T05:32:49;41.15;;;23.38;;
4857;SDS011;58975;51.978;8.472;2023-05-23T05:37:46;37.63;;;23.20;;
4857;SDS011;58975;51.978;8.472;2023-05-23T05:42:43;42.33;;;24.25;;
4857;SDS011;58975;51.978;8.472;2023-05-23T05:47:39;37.55;;;23.77;;
4857;SDS011;58975;51.978;8.472;2023-05-23T05:52:37;38.88;;;23.27;;
4857;SDS011;58975;51.978;8.472;2023-05-23T06:02:33;53.55;;;25.70;;
4857;SDS011;58975;51.978;8.472;2023-05-23T06:07:30;47.35;;;24.35;;
4857;SDS011;58975;51.978;8.472;2023-05-23T06:12:26;48.90;;;26.33;;
4857;SDS011;58975;51.978;8.472;2023-05-23T06:17:23;48.17;;;25.05;;
4857;SDS011;58975;51.978;8.472;2023-05-23T06:22:20;34.00;;;19.13;;
4857;SDS011;58975;51.978;8.472;2023-05-23T06:27:16;30.17;;;18.10;;
4857;SDS011;58975;51.978;8.472;2023-05-23T06:32:12;33.58;;;17.30;;
4857;SDS011;58975;51.978;8.472;2023-05-23T06:37:09;28.30;;;16.80;;
4857;SDS011;58975;51.978;8.472;2023-05-23T06:42:05;30.33;;;15.32;;
4857;SDS011;58975;51.978;8.472;2023-05-23T06:47:02;28.60;;;14.98;;
4857;SDS011;58975;51.978;8.472;2023-05-23T06:51:59;25.10;;;13.65;;
4857;SDS011;58975;51.978;8.472;2023-05-23T06:56:55;29.55;;;14.95;;
4857;SDS011;58975;51.978;8.472;2023-05-23T07:01:52;24.05;;;12.02;;
4857;SDS011;58975;51.978;8.472;2023-05-23T07:06:48;27.40;;;13.18;;
4857;SDS011;58975;51.978;8.472;2023-05-23T07:11:45;29.23;;;13.85;;
4857;SDS011;58975;51.978;8.472;2023-05-23T07:16:42;26.20;;;13.85;;
4857;SDS011;58975;51.978;8.472;2023-05-23T07:21:38;23.27;;;13.93;;
4857;SDS011;58975;51.978;8.472;2023-05-23T07:26:35;25.30;;;11.63;;
4857;SDS011;58975;51.978;8.472;2023-05-23T07:31:32;14.57;;;9.80;;
4857;SDS011;58975;51.978;8.472;2023-05-23T07:36:28;18.85;;;10.18;;
4857;SDS011;58975;51.978;8.472;2023-05-23T07:41:29;14.93;;;9.35;;
4857;SDS011;58975;51.978;8.472;2023-05-23T07:46:26;20.90;;;10.65;;
4857;SDS011;58975;51.978;8.472;2023-05-23T07:51:22;17.30;;;9.50;;
4857;SDS011;58975;51.978;8.472;2023-05-23T07:56:19;15.30;;;8.48;;
4857;SDS011;58975;51.978;8.472;2023-05-23T08:01:16;11.68;;;7.05;;
4857;SDS011;58975;51.978;8.472;2023-05-23T08:06:13;10.37;;;3.90;;
4857;SDS011;58975;51.978;8.472;2023-05-23T08:11:10;5.55;;;2.50;;
4857;SDS011;58975;51.978;8.472;2023-05-23T08:16:06;2.85;;;2.30;;
4857;SDS011;58975;51.978;8.472;2023-05-23T08:21:02;4.30;;;2.35;;
4857;SDS011;58975;51.978;8.472;2023-05-23T08:25:59;3.35;;;2.15;;
4857;SDS011;58975;51.978;8.472;2023-05-23T08:30:55;2.88;;;1.80;;
4857;SDS011;58975;51.978;8.472;2023-05-23T08:35:53;2.60;;;2.30;;
4857;SDS011;58975;51.978;8.472;2023-05-23T08:40:50;3.22;;;2.65;;
4857;SDS011;58975;51.978;8.472;2023-05-23T08:45:49;4.20;;;2.25;;
4857;SDS011;58975;51.978;8.472;2023-05-23T08:50:47;4.05;;;2.92;;
4857;SDS011;58975;51.978;8.472;2023-05-23T08:55:46;4.75;;;2.78;;
4857;SDS011;58975;51.978;8.472;2023-05-23T09:00:43;9.10;;;3.83;;
4857;SDS011;58975;51.978;8.472;2023-05-23T09:05:41;9.97;;;3.40;;
4857;SDS011;58975;51.978;8.472;2023-05-23T09:10:38;5.70;;;3.50;;
4857;SDS011;58975;51.978;8.472;2023-05-23T09:15:35;8.10;;;4.10;;
4857;SDS011;58975;51.978;8.472;2023-05-23T09:20:32;10.43;;;4.93;;
4857;SDS011;58975;51.978;8.472;2023-05-23T09:25:29;11.05;;;4.57;;
4857;SDS011;58975;51.978;8.472;2023-05-23T09:30:26;9.32;;;4.97;;
4857;SDS011;58975;51.978;8.472;2023-05-23T09:35:22;13.88;;;5.30;;
4857;SDS011;58975;51.978;8.472;2023-05-23T09:40:19;18.42;;;6.72;;
4857;SDS011;58975;51.978;8.472;2023-05-23T09:45:15;12.70;;;6.55;;
4857;SDS011;58975;51.978;8.472;2023-05-23T09:50:12;15.70;;;6.53;;
4857;SDS011;58975;51.978;8.472;2023-05-23T09:55:09;14.00;;;7.38;;
4857;SDS011;58975;51.978;8.472;2023-05-23T10:00:05;18.30;;;8.18;;
4857;SDS011;58975;51.978;8.472;2023-05-23T10:05:09;21.98;;;9.13;;
4857;SDS011;58975;51.978;8.472;2023-05-23T10:10:11;28.40;;;10.00;;
4857;SDS011;58975;51.978;8.472;2023-05-23T10:15:09;25.50;;;9.02;;
4857;SDS011;58975;51.978;8.472;2023-05-23T10:20:13;20.48;;;8.30;;
4857;SDS011;58975;51.978;8.472;2023-05-23T10:25:11;16.02;;;8.30;;
4857;SDS011;58975;51.978;8.472;2023-05-23T10:30:08;14.65;;;7.03;;
4857;SDS011;58975;51.978;8.472;2023-05-23T10:35:31;19.15;;;6.70;;
4857;SDS011;58975;51.978;8.472;2023-05-23T10:41:00;15.93;;;6.20;;
4857;SDS011;58975;51.978;8.472;2023-05-23T10:46:07;12.10;;;6.25;;
4857;SDS011;58975;51.978;8.472;2023-05-23T10:51:10;19.35;;;5.57;;
4857;SDS011;58975;51.978;8.472;2023-05-23T10:56:10;16.45;;;5.38;;
4857;SDS011;58975;51.978;8.472;2023-05-23T11:01:17;19.20;;;5.43;;
4857;SDS011;58975;51.978;8.472;2023-05-23T11:11:23;10.02;;;3.88;;
4857;SDS011;58975;51.978;8.472;2023-05-23T11:21:25;11.50;;;4.30;;
4857;SDS011;58975;51.978;8.472;2023-05-23T11:26:27;15.57;;;5.22;;
4857;SDS011;58975;51.978;8.472;2023-05-23T11:31:25;11.65;;;3.58;;
4857;SDS011;58975;51.978;8.472;2023-05-23T11:36:22;9.13;;;3.60;;
4857;SDS011;58975;51.978;8.472;2023-05-23T11:41:18;8.63;;;3.17;;
4857;SDS011;58975;51.978;8.472;2023-05-23T11:46:15;11.13;;;2.78;;
4857;SDS011;58975;51.978;8.472;2023-05-23T11:51:12;15.38;;;3.92;;
4857;SDS011;58975;51.978;8.472;2023-05-23T11:56:09;11.00;;;2.88;;
4857;SDS011;58975;51.978;8.472;2023-05-23T12:01:11;17.52;;;3.38;;
4857;SDS011;58975;51.978;8.472;2023-05-23T12:06:08;10.10;;;3.00;;
4857;SDS011;58975;51.978;8.472;2023-05-23T12:11:08;13.38;;;3.00;;
4857;SDS011;58975;51.978;8.472;2023-05-23T12:16:05;13.95;;;3.00;;
4857;SDS011;58975;51.978;8.472;2023-05-23T12:21:02;17.65;;;3.28;;
4857;SDS011;58975;51.978;8.472;2023-05-23T12:26:05;12.18;;;2.92;;
4857;SDS011;58975;51.978;8.472;2023-05-23T12:31:13;9.77;;;3.05;;
4857;SDS011;58975;51.978;8.472;2023-05-23T12:36:12;11.75;;;3.08;;
4857;SDS011;58975;51.978;8.472;2023-05-23T12:41:10;16.63;;;3.00;;
4857;SDS011;58975;51.978;8.472;2023-05-23T12:46:11;14.00;;;2.92;;
4857;SDS011;58975;51.978;8.472;2023-05-23T12:51:08;14.75;;;3.47;;
4857;SDS011;58975;51.978;8.472;2023-05-23T12:56:04;10.95;;;2.53;;
4857;SDS011;58975;51.978;8.472;2023-05-23T13:01:01;13.13;;;3.60;;
4857;SDS011;58975;51.978;8.472;2023-05-23T13:05:58;9.55;;;3.05;;
4857;SDS011;58975;51.978;8.472;2023-05-23T13:10:55;9.02;;;2.90;;
4857;SDS011;58975;51.978;8.472;2023-05-23T13:15:52;9.98;;;3.20;;
4857;SDS011;58975;51.978;8.472;2023-05-23T13:20:49;11.30;;;3.70;;
4857;SDS011;58975;51.978;8.472;2023-05-23T13:25:46;11.57;;;2.97;;
4857;SDS011;58975;51.978;8.472;2023-05-23T13:30:42;12.63;;;2.60;;
4857;SDS011;58975;51.978;8.472;2023-05-23T13:35:42;14.90;;;2.80;;
4857;SDS011;58975;51.978;8.472;2023-05-23T13:40:39;11.83;;;2.17;;
4857;SDS011;58975;51.978;8.472;2023-05-23T13:45:36;12.77;;;2.50;;
4857;SDS011;58975;51.978;8.472;2023-05-23T13:50:33;14.32;;;4.00;;
4857;SDS011;58975;51.978;8.472;2023-05-23T13:55:29;10.52;;;2.78;;
4857;SDS011;58975;51.978;8.472;2023-05-23T14:00:26;12.48;;;2.40;;
4857;SDS011;58975;51.978;8.472;2023-05-23T14:05:23;8.70;;;2.85;;
4857;SDS011;58975;51.978;8.472;2023-05-23T14:10:19;12.05;;;2.67;;
4857;SDS011;58975;51.978;8.472;2023-05-23T14:15:16;17.13;;;2.90;;
4857;SDS011;58975;51.978;8.472;2023-05-23T14:20:13;11.57;;;3.13;;
4857;SDS011;58975;51.978;8.472;2023-05-23T14:25:10;11.32;;;3.10;;
4857;SDS011;58975;51.978;8.472;2023-05-23T14:30:06;8.15;;;2.88;;
4857;SDS011;58975;51.978;8.472;2023-05-23T14:35:04;11.90;;;2.97;;
4857;SDS011;58975;51.978;8.472;2023-05-23T14:40:02;8.00;;;2.17;;
4857;SDS011;58975;51.978;8.472;2023-05-23T14:45:02;9.70;;;2.63;;
4857;SDS011;58975;51.978;8.472;2023-05-23T14:49:58;13.60;;;2.70;;
4857;SDS011;58975;51.978;8.472;2023-05-23T14:54:55;12.18;;;2.40;;
4857;SDS011;58975;51.978;8.472;2023-05-23T14:59:51;11.18;;;3.13;;
4857;SDS011;58975;51.978;8.472;2023-05-23T15:04:48;18.17;;;2.25;;
4857;SDS011;58975;51.978;8.472;2023-05-23T15:09:44;8.80;;;2.42;;
4857;SDS011;58975;51.978;8.472;2023-05-23T15:14:43;8.43;;;2.25;;
4857;SDS011;58975;51.978;8.472;2023-05-23T15:19:39;11.85;;;2.60;;
4857;SDS011;58975;51.978;8.472;2023-05-23T15:24:38;8.68;;;2.92;;
4857;SDS011;58975;51.978;8.472;2023-05-23T15:29:36;12.00;;;2.47;;
4857;SDS011;58975;51.978;8.472;2023-05-23T15:34:35;7.40;;;2.08;;
4857;SDS011;58975;51.978;8.472;2023-05-23T15:39:32;15.60;;;2.40;;
4857;SDS011;58975;51.978;8.472;2023-05-23T15:44:28;4.78;;;2.47;;
4857;SDS011;58975;51.978;8.472;2023-05-23T15:49:25;9.40;;;2.75;;
4857;SDS011;58975;51.978;8.472;2023-05-23T15:54:22;12.48;;;2.00;;
4857;SDS011;58975;51.978;8.472;2023-05-23T15:59:19;11.05;;;2.20;;
4857;SDS011;58975;51.978;8.472;2023-05-23T16:04:16;12.93;;;3.00;;
4857;SDS011;58975;51.978;8.472;2023-05-23T16:09:13;10.80;;;2.60;;
4857;SDS011;58975;51.978;8.472;2023-05-23T16:14:10;9.05;;;2.92;;
4857;SDS011;58975;51.978;8.472;2023-05-23T16:19:07;11.02;;;2.17;;
4857;SDS011;58975;51.978;8.472;2023-05-23T16:24:03;21.80;;;3.03;;
4857;SDS011;58975;51.978;8.472;2023-05-23T16:29:00;12.10;;;2.25;;
4857;SDS011;58975;51.978;8.472;2023-05-23T16:33:57;15.02;;;2.83;;
4857;SDS011;58975;51.978;8.472;2023-05-23T16:38:54;7.65;;;2.03;;
4857;SDS011;58975;51.978;8.472;2023-05-23T16:43:51;9.48;;;2.10;;
4857;SDS011;58975;51.978;8.472;2023-05-23T16:48:47;5.72;;;1.95;;
4857;SDS011;58975;51.978;8.472;2023-05-23T16:53:44;7.75;;;1.50;;
4857;SDS011;58975;51.978;8.472;2023-05-23T16:58:40;10.00;;;2.38;;
4857;SDS011;58975;51.978;8.472;2023-05-23T17:03:37;11.98;;;2.38;;
4857;SDS011;58975;51.978;8.472;2023-05-23T17:08:34;14.37;;;2.20;;
4857;SDS011;58975;51.978;8.472;2023-05-23T17:13:31;8.07;;;1.88;;
4857;SDS011;58975;51.978;8.472;2023-05-23T17:18:28;10.85;;;1.95;;
4857;SDS011;58975;51.978;8.472;2023-05-23T17:23:24;6.72;;;1.92;;
4857;SDS011;58975;51.978;8.472;2023-05-23T17:28:21;5.65;;;1.60;;
4857;SDS011;58975;51.978;8.472;2023-05-23T17:33:18;9.23;;;1.98;;
4857;SDS011;58975;51.978;8.472;2023-05-23T17:38:14;8.52;;;2.50;;
4857;SDS011;58975;51.978;8.472;2023-05-23T17:43:11;7.03;;;2.03;;
4857;SDS011;58975;51.978;8.472;2023-05-23T17:48:07;8.57;;;1.67;;
4857;SDS011;58975;51.978;8.472;2023-05-23T17:53:04;8.50;;;1.85;;
4857;SDS011;58975;51.978;8.472;2023-05-23T17:58:01;7.78;;;1.85;;
4857;SDS011;58975;51.978;8.472;2023-05-23T18:02:58;13.68;;;2.13;;
4857;SDS011;58975;51.978;8.472;2023-05-23T18:07:55;6.38;;;1.88;;
4857;SDS011;58975;51.978;8.472;2023-05-23T18:12:52;8.65;;;1.88;;
4857;SDS011;58975;51.978;8.472;2023-05-23T18:17:49;13.27;;;2.92;;
4857;SDS011;58975;51.978;8.472;2023-05-23T18:22:51;9.30;;;2.40;;
4857;SDS011;58975;51.978;8.472;2023-05-23T18:27:48;10.45;;;1.90;;
4857;SDS011;58975;51.978;8.472;2023-05-23T18:32:45;7.75;;;2.20;;
4857;SDS011;58975;51.978;8.472;2023-05-23T18:37:41;6.05;;;1.73;;
4857;SDS011;58975;51.978;8.472;2023-05-23T18:42:38;7.68;;;1.85;;
4857;SDS011;58975;51.978;8.472;2023-05-23T18:47:35;11.45;;;1.77;;
4857;SDS011;58975;51.978;8.472;2023-05-23T18:52:32;10.43;;;2.03;;
4857;SDS011;58975;51.978;8.472;2023-05-23T18:57:32;8.48;;;2.03;;
4857;SDS011;58975;51.978;8.472;2023-05-23T19:02:28;10.45;;;1.85;;
4857;SDS011;58975;51.978;8.472;2023-05-23T19:07:25;11.38;;;2.05;;
4857;SDS011;58975;51.978;8.472;2023-05-23T19:12:22;11.52;;;1.73;;
4857;SDS011;58975;51.978;8.472;2023-05-23T19:17:18;12.40;;;2.33;;
4857;SDS011;58975;51.978;8.472;2023-05-23T19:22:15;13.10;;;1.92;;
4857;SDS011;58975;51.978;8.472;2023-05-23T19:27:12;13.00;;;2.03;;
4857;SDS011;58975;51.978;8.472;2023-05-23T19:32:10;11.73;;;1.90;;
4857;SDS011;58975;51.978;8.472;2023-05-23T19:37:06;9.63;;;2.40;;
4857;SDS011;58975;51.978;8.472;2023-05-23T19:42:03;12.75;;;1.90;;
4857;SDS011;58975;51.978;8.472;2023-05-23T19:46:59;13.80;;;2.33;;
4857;SDS011;58975;51.978;8.472;2023-05-23T19:51:56;6.63;;;2.08;;
4857;SDS011;58975;51.978;8.472;2023-05-23T19:56:52;11.45;;;2.42;;
4857;SDS011;58975;51.978;8.472;2023-05-23T20:01:49;7.72;;;2.55;;
4857;SDS011;58975;51.978;8.472;2023-05-23T20:06:46;5.78;;;1.95;;
4857;SDS011;58975;51.978;8.472;2023-05-23T20:11:42;7.45;;;1.70;;
4857;SDS011;58975;51.978;8.472;2023-05-23T20:16:39;11.15;;;2.10;;
4857;SDS011;58975;51.978;8.472;2023-05-23T20:21:36;13.25;;;1.90;;
4857;SDS011;58975;51.978;8.472;2023-05-23T20:26:32;14.82;;;1.98;;
4857;SDS011;58975;51.978;8.472;2023-05-23T20:31:29;10.13;;;1.77;;
4857;SDS011;58975;51.978;8.472;2023-05-23T20:36:25;12.15;;;2.03;;
4857;SDS011;58975;51.978;8.472;2023-05-23T20:41:22;11.30;;;3.00;;
4857;SDS011;58975;51.978;8.472;2023-05-23T20:46:19;12.88;;;2.13;;
4857;SDS011;58975;51.978;8.472;2023-05-23T20:51:16;11.35;;;1.88;;
4857;SDS011;58975;51.978;8.472;2023-05-23T20:56:12;10.35;;;2.90;;
4857;SDS011;58975;51.978;8.472;2023-05-23T21:01:09;12.73;;;2.20;;
4857;SDS011;58975;51.978;8.472;2023-05-23T21:06:06;8.80;;;1.83;;
4857;SDS011;58975;51.978;8.472;2023-05-23T21:11:02;11.85;;;2.08;;
4857;SDS011;58975;51.978;8.472;2023-05-23T21:15:59;12.02;;;1.50;;
4857;SDS011;58975;51.978;8.472;2023-05-23T21:20:55;6.25;;;1.98;;
4857;SDS011;58975;51.978;8.472;2023-05-23T21:25:52;22.70;;;3.00;;
4857;SDS011;58975;51.978;8.472;2023-05-23T21:30:48;12.27;;;2.42;;
4857;SDS011;58975;51.978;8.472;2023-05-23T21:35:45;17.85;;;2.03;;
4857;SDS011;58975;51.978;8.472;2023-05-23T21:40:41;8.40;;;1.98;;
4857;SDS011;58975;51.978;8.472;2023-05-23T21:45:38;11.95;;;2.20;;
4857;SDS011;58975;51.978;8.472;2023-05-23T21:50:35;9.88;;;2.83;;
4857;SDS011;58975;51.978;8.472;2023-05-23T21:55:31;9.50;;;1.92;;
4857;SDS011;58975;51.978;8.472;2023-05-23T22:00:27;11.68;;;2.00;;
4857;SDS011;58975;51.978;8.472;2023-05-23T22:05:24;12.23;;;1.65;;
4857;SDS011;58975;51.978;8.472;2023-05-23T22:10:21;10.85;;;1.90;;
4857;SDS011;58975;51.978;8.472;2023-05-23T22:15:18;14.18;;;3.13;;
4857;SDS011;58975;51.978;8.472;2023-05-23T22:20:14;10.35;;;1.70;;
4857;SDS011;58975;51.978;8.472;2023-05-23T22:25:11;6.95;;;1.85;;
4857;SDS011;58975;51.978;8.472;2023-05-23T22:30:08;16.60;;;2.30;;
4857;SDS011;58975;51.978;8.472;2023-05-23T22:35:05;9.77;;;2.22;;
4857;SDS011;58975;51.978;8.472;2023-05-23T22:40:02;10.60;;;2.42;;
4857;SDS011;58975;51.978;8.472;2023-05-23T22:44:59;15.20;;;2.63;;
4857;SDS011;58975;51.978;8.472;2023-05-23T22:49:55;10.75;;;2.47;;
4857;SDS011;58975;51.978;8.472;2023-05-23T22:54:54;11.82;;;2.20;;
4857;SDS011;58975;51.978;8.472;2023-05-23T22:59:50;18.90;;;2.80;;
4857;SDS011;58975;51.978;8.472;2023-05-23T23:04:47;12.20;;;2.00;;
4857;SDS011;58975;51.978;8.472;2023-05-23T23:09:43;14.00;;;1.73;;
4857;SDS011;58975;51.978;8.472;2023-05-23T23:14:40;9.10;;;2.05;;
4857;SDS011;58975;51.978;8.472;2023-05-23T23:19:37;15.77;;;2.78;;
4857;SDS011;58975;51.978;8.472;2023-05-23T23:24:34;12.55;;;2.25;;
4857;SDS011;58975;51.978;8.472;2023-05-23T23:29:30;12.68;;;2.58;;
4857;SDS011;58975;51.978;8.472;2023-05-23T23:34:27;10.80;;;1.67;;
4857;SDS011;58975;51.978;8.472;2023-05-23T23:39:24;9.60;;;1.75;;
4857;SDS011;58975;51.978;8.472;2023-05-23T23:44:21;6.97;;;2.30;;
4857;SDS011;58975;51.978;8.472;2023-05-23T23:49:17;12.45;;;3.35;;
4857;SDS011;58975;51.978;8.472;2023-05-23T23:54:14;9.23;;;2.75;;
4857;SDS011;58975;51.978;8.472;2023-05-23T23:59:11;9.05;;;3.25;;
